Time;durP1;ratioP1;P1;durP2;ratioP2;P2;SDS_P1;SDS_P2;PMS_P1;PMS_P2;Temp;Humidity;BMP_temperature;BMP_pressure;BME280_temperature;BME280_humidity;BME280_pressure;Samples;Min_cycle;Max_cycle;Signal;HPM_P1;HPM_P2
2021/05/31 00:02:16;;;;;;;4.63;3.17;;;;;;;10.07;51.12;97036.97;4976427;28;20132;-61
2021/05/31 00:04:41;;;;;;;6.72;3.10;;;;;;;10.04;51.37;97043.16;4982070;28;20045;-59
2021/05/31 00:07:11;;;;;;;5.70;2.78;;;;;;;10.01;51.25;97030.19;4974782;28;20050;-61
2021/05/31 00:09:39;;;;;;;5.72;2.75;;;;;;;9.91;51.92;97031.50;4961894;28;20042;-60
2021/05/31 00:12:08;;;;;;;7.40;4.30;;;;;;;9.87;52.16;97024.38;4958418;28;20038;-59
2021/05/31 00:14:34;;;;;;;5.68;3.00;;;;;;;9.98;50.58;97030.09;4963796;28;20089;-59
2021/05/31 00:17:00;;;;;;;5.25;2.60;;;;;;;9.84;51.54;97020.41;4963368;28;20492;-60
2021/05/31 00:19:25;;;;;;;5.13;2.50;;;;;;;9.91;50.81;97014.31;4967308;28;20056;-59
2021/05/31 00:21:51;;;;;;;4.95;2.72;;;;;;;9.90;50.97;97019.00;4974985;28;20125;-61
2021/05/31 00:24:18;;;;;;;4.28;2.65;;;;;;;9.98;51.12;97019.16;4976325;28;20038;-58
2021/05/31 00:26:44;;;;;;;5.30;2.75;;;;;;;10.21;49.92;97014.63;4981688;28;20065;-58
2021/05/31 00:29:09;;;;;;;3.80;2.75;;;;;;;10.16;49.53;97012.16;4977165;28;20128;-60
2021/05/31 00:31:35;;;;;;;4.90;2.75;;;;;;;10.16;50.20;97005.91;4982891;28;20038;-56
2021/05/31 00:34:01;;;;;;;5.47;2.67;;;;;;;10.24;49.14;97008.41;4979799;28;20035;-59
2021/05/31 00:36:27;;;;;;;5.88;2.80;;;;;;;10.13;49.69;97005.44;4980654;28;20049;-61
2021/05/31 00:38:52;;;;;;;7.82;2.65;;;;;;;10.17;49.38;97013.72;4986040;28;20105;-61
2021/05/31 00:41:19;;;;;;;5.25;2.75;;;;;;;10.17;49.25;97008.25;4980151;28;20054;-61
2021/05/31 00:43:45;;;;;;;8.02;2.90;;;;;;;10.14;49.38;96996.09;4982887;28;20038;-60
2021/05/31 00:46:10;;;;;;;5.50;3.45;;;;;;;10.20;49.38;96998.56;4976115;28;20041;-62
2021/05/31 00:48:37;;;;;;;6.10;2.70;;;;;;;10.21;49.48;97006.41;4971360;28;20046;-61
2021/05/31 00:51:05;;;;;;;5.78;2.50;;;;;;;10.26;48.75;96988.91;4969323;28;20042;-63
2021/05/31 00:53:31;;;;;;;7.03;2.63;;;;;;;10.29;48.76;96988.97;4973532;28;20081;-59
2021/05/31 00:55:57;;;;;;;4.82;2.80;;;;;;;10.33;48.31;96986.34;4969309;28;20043;-60
2021/05/31 00:58:27;;;;;;;4.72;2.40;;;;;;;10.28;48.28;96986.59;4957855;28;20152;-60
2021/05/31 01:00:53;;;;;;;4.70;2.90;;;;;;;10.40;47.77;96983.75;4981177;28;20447;-60
2021/05/31 01:03:18;;;;;;;5.15;2.72;;;;;;;10.40;47.96;96977.50;4975488;28;20447;-61
2021/05/31 01:05:46;;;;;;;9.02;4.32;;;;;;;10.37;47.81;96976.28;4997417;28;20045;-62
2021/05/31 01:08:17;;;;;;;6.95;2.60;;;;;;;10.41;47.62;96968.16;4976868;28;20097;-59
2021/05/31 01:11:14;;;;;;;6.07;2.83;;;;;;;10.47;47.25;96970.22;4982088;28;20046;-60
2021/05/31 01:13:49;;;;;;;5.13;2.40;;;;;;;10.37;48.12;96970.81;4970514;28;20048;-62
2021/05/31 01:16:26;;;;;;;3.97;2.60;;;;;;;10.30;48.21;96965.16;4993964;28;20054;-62
2021/05/31 01:18:53;;;;;;;5.00;2.50;;;;;;;10.19;48.55;96983.25;4997396;28;20046;-63
2021/05/31 01:22:01;;;;;;;5.80;2.80;;;;;;;10.20;48.69;96973.91;4981891;28;20053;-61
2021/05/31 01:24:52;;;;;;;11.57;3.17;;;;;;;10.14;49.17;96976.13;4973008;28;20030;-55
2021/05/31 01:27:20;;;;;;;5.25;2.95;;;;;;;10.05;49.25;96981.03;4977217;28;20034;-61
2021/05/31 01:30:08;;;;;;;6.10;2.80;;;;;;;9.92;49.66;96975.66;4981813;28;20133;-60
2021/05/31 01:32:37;;;;;;;8.85;2.75;;;;;;;9.88;49.54;96977.50;4979820;28;20046;-60
2021/05/31 01:35:06;;;;;;;5.90;2.63;;;;;;;9.88;49.78;96979.44;4978197;28;20069;-64
2021/05/31 01:37:34;;;;;;;6.72;3.38;;;;;;;9.72;50.24;96974.78;4978714;28;20039;-59
2021/05/31 01:40:04;;;;;;;7.32;3.38;;;;;;;9.73;50.59;96981.84;4981387;28;20412;-60
2021/05/31 01:42:30;;;;;;;5.07;3.22;;;;;;;9.81;50.48;96973.81;4979350;28;20042;-61
2021/05/31 01:44:57;;;;;;;5.90;2.60;;;;;;;9.80;50.42;96978.50;4981227;28;20460;-61
2021/05/31 01:47:23;;;;;;;4.50;2.90;;;;;;;9.65;51.04;96977.34;4975752;28;20046;-61
2021/05/31 01:49:50;;;;;;;4.85;2.72;;;;;;;9.58;51.02;96974.44;4962335;28;20050;-60
2021/05/31 01:52:17;;;;;;;8.52;3.05;;;;;;;9.48;51.23;96973.03;4957638;28;20137;-59
2021/05/31 01:54:43;;;;;;;7.80;2.70;;;;;;;9.60;50.87;96974.88;4961424;28;20527;-60
2021/05/31 01:57:10;;;;;;;7.07;3.17;;;;;;;9.54;51.25;96968.06;4962402;28;20047;-61
2021/05/31 01:59:36;;;;;;;8.50;3.00;;;;;;;9.49;51.93;96971.88;4981105;28;20145;-58
2021/05/31 02:02:02;;;;;;;5.78;3.17;;;;;;;9.39;52.30;96975.13;4980311;28;20133;-60
2021/05/31 02:04:28;;;;;;;6.22;3.13;;;;;;;9.41;52.41;96970.09;4974330;28;20046;-61
2021/05/31 02:06:53;;;;;;;8.10;3.22;;;;;;;9.40;52.06;96965.81;4981653;28;20042;-60
2021/05/31 02:09:21;;;;;;;6.82;3.28;;;;;;;9.34;52.33;96967.19;4975807;28;20121;-59
2021/05/31 02:11:49;;;;;;;6.28;3.40;;;;;;;9.32;52.47;96959.34;4973266;28;20042;-58
2021/05/31 02:14:19;;;;;;;5.43;2.92;;;;;;;9.31;52.45;96954.22;4958210;28;20127;-60
2021/05/31 02:16:53;;;;;;;;;;;;;;;9.24;53.18;96948.56;4974886;28;20038;-59
2021/05/31 02:19:21;;;;;;;4.25;2.40;;;;;;;9.16;52.66;96945.69;4987261;28;19943;-58
2021/05/31 02:21:48;;;;;;;4.85;2.85;;;;;;;9.10;53.32;96946.28;4982865;28;20403;-61
2021/05/31 02:24:14;;;;;;;5.22;2.85;;;;;;;9.07;53.18;96946.97;4975369;28;20042;-59
2021/05/31 02:26:40;;;;;;;13.68;5.13;;;;;;;9.08;53.14;96948.59;4975931;28;20050;-60
2021/05/31 02:29:06;;;;;;;7.63;3.30;;;;;;;9.12;53.25;96949.47;4971039;28;20376;-57
2021/05/31 02:31:32;;;;;;;5.07;2.95;;;;;;;9.10;53.19;96943.56;4979565;28;20043;-60
2021/05/31 02:33:58;;;;;;;6.85;3.22;;;;;;;9.18;52.14;96953.50;4976530;28;20481;-58
2021/05/31 02:36:24;;;;;;;8.20;3.60;;;;;;;9.10;52.60;96951.75;4977176;28;20146;-59
2021/05/31 02:38:49;;;;;;;5.75;2.88;;;;;;;9.07;52.61;96949.72;4972796;28;20490;-59
2021/05/31 02:41:15;;;;;;;5.68;2.70;;;;;;;9.14;52.67;96952.63;4972852;28;20054;-59
2021/05/31 02:43:41;;;;;;;5.63;2.90;;;;;;;9.20;51.89;96940.31;4974000;28;20112;-58
2021/05/31 02:46:07;;;;;;;9.00;3.42;;;;;;;9.11;52.21;96954.13;4974353;28;20049;-57
2021/05/31 02:48:33;;;;;;;6.82;2.90;;;;;;;9.09;52.66;96950.16;4972836;28;20046;-59
2021/05/31 02:50:59;;;;;;;6.35;3.03;;;;;;;9.04;52.40;96953.13;4981193;28;20126;-60
2021/05/31 02:53:25;;;;;;;7.40;2.92;;;;;;;9.04;52.65;96953.13;4973434;28;20169;-59
2021/05/31 02:55:52;;;;;;;7.03;2.72;;;;;;;8.98;52.69;96950.69;4965660;28;20057;-59
2021/05/31 02:58:17;;;;;;;6.35;3.00;;;;;;;9.03;52.39;96948.84;4959066;28;20105;-60
2021/05/31 03:00:43;;;;;;;5.88;2.63;;;;;;;9.01;53.23;96945.66;4971366;28;20668;-57
2021/05/31 03:03:09;;;;;;;8.07;2.88;;;;;;;8.89;53.74;96944.56;4970802;28;20660;-61
2021/05/31 03:05:36;;;;;;;8.30;3.15;;;;;;;8.85;53.40;96945.63;4984445;28;20049;-59
2021/05/31 03:08:02;;;;;;;6.10;3.00;;;;;;;8.85;53.78;96931.97;4984392;28;20411;-59
2021/05/31 03:10:28;;;;;;;6.47;3.05;;;;;;;9.01;52.26;96940.19;4979544;28;20042;-60
2021/05/31 03:12:54;;;;;;;7.22;3.08;;;;;;;8.94;53.01;96944.31;4975900;28;20492;-59
2021/05/31 03:15:21;;;;;;;5.22;2.72;;;;;;;8.96;52.70;96933.81;4977717;28;20061;-61
2021/05/31 03:17:48;;;;;;;5.15;2.97;;;;;;;8.99;52.26;96948.75;4977254;28;20061;-57
2021/05/31 03:20:18;;;;;;;4.40;2.75;;;;;;;9.00;52.42;96931.19;4967742;28;20781;-60
2021/05/31 03:22:43;;;;;;;6.72;2.92;;;;;;;8.96;52.47;96943.97;4977326;28;20456;-61
2021/05/31 03:25:10;;;;;;;6.90;3.47;;;;;;;8.98;52.89;96939.75;4971684;28;20077;-60
2021/05/31 03:27:36;;;;;;;6.28;3.83;;;;;;;9.12;52.06;96944.78;4974049;28;20069;-59
2021/05/31 03:30:04;;;;;;;5.68;3.17;;;;;;;9.02;52.79;96947.22;4981475;28;20496;-60
2021/05/31 03:32:30;;;;;;;7.55;3.10;;;;;;;8.98;52.51;96953.41;4977974;28;20050;-60
2021/05/31 03:34:56;;;;;;;5.35;2.97;;;;;;;9.05;52.17;96949.28;4963779;28;20046;-59
2021/05/31 03:37:21;;;;;;;7.68;3.67;;;;;;;8.95;52.84;96945.13;4959498;28;21152;-58
2021/05/31 03:39:47;;;;;;;4.50;3.00;;;;;;;8.91;53.33;96944.22;4966352;28;20069;-60
2021/05/31 03:42:12;;;;;;;4.85;2.95;;;;;;;8.85;53.73;96953.81;4961578;28;20077;-55
2021/05/31 03:44:38;;;;;;;4.78;2.88;;;;;;;8.91;53.06;96946.94;4974458;28;20041;-61
2021/05/31 03:47:03;;;;;;;6.47;2.90;;;;;;;8.90;53.39;96940.69;4978195;28;20093;-61
2021/05/31 03:49:29;;;;;;;4.90;2.63;;;;;;;8.97;52.51;96948.28;4973479;28;20046;-59
2021/05/31 03:51:54;;;;;;;8.05;2.80;;;;;;;8.89;52.68;96950.03;4984090;28;20676;-61
2021/05/31 03:54:20;;;;;;;9.10;3.13;;;;;;;8.84;52.73;96939.38;4975676;28;20042;-60
2021/05/31 03:56:45;;;;;;;4.68;2.70;;;;;;;8.86;53.01;96952.66;4983817;28;20049;-61
2021/05/31 03:59:11;;;;;;;10.65;3.67;;;;;;;8.90;53.07;96943.44;4977819;28;20039;-58
2021/05/31 04:01:36;;;;;;;5.93;3.65;;;;;;;8.91;52.69;96955.16;4979160;28;20101;-57
2021/05/31 04:04:02;;;;;;;10.88;3.20;;;;;;;8.85;53.49;96962.81;4982970;28;20039;-60
2021/05/31 04:06:52;;;;;;;4.63;3.03;;;;;;;8.91;53.53;96961.41;4976255;28;20051;-60
2021/05/31 04:12:02;;;;;;;5.13;2.92;;;;;;;8.97;53.71;96965.47;4974284;28;20042;-60
2021/05/31 04:14:28;;;;;;;9.43;3.00;;;;;;;9.01;53.54;96971.03;4974934;28;20038;-61
2021/05/31 04:16:55;;;;;;;5.55;2.30;;;;;;;9.08;53.28;96963.03;4963521;28;20065;-60
2021/05/31 04:19:23;;;;;;;5.68;2.72;;;;;;;9.04;53.79;96959.41;4965237;28;20060;-61
2021/05/31 04:21:51;;;;;;;5.72;2.63;;;;;;;9.12;53.38;96957.66;4974615;28;20047;-62
2021/05/31 04:24:17;;;;;;;5.38;2.65;;;;;;;9.16;53.37;96959.34;4956517;28;20137;-61
2021/05/31 04:26:43;;;;;;;4.57;2.70;;;;;;;9.15;54.06;96965.16;4962332;28;20150;-61
2021/05/31 04:29:11;;;;;;;5.65;3.00;;;;;;;9.23;53.13;96966.13;4976304;28;20050;-61
2021/05/31 04:31:38;;;;;;;5.28;2.83;;;;;;;9.25;53.40;96964.63;4973583;28;20074;-60
2021/05/31 04:34:06;;;;;;;6.40;3.10;;;;;;;9.22;53.54;96967.25;4977408;28;20038;-60
2021/05/31 04:36:32;;;;;;;5.13;3.25;;;;;;;9.29;53.06;96965.53;4980068;28;20046;-60
2021/05/31 04:38:59;;;;;;;5.88;2.92;;;;;;;9.43;52.14;96976.00;4972892;28;20150;-60
2021/05/31 04:41:25;;;;;;;3.97;2.60;;;;;;;9.40;53.23;96974.00;4975293;28;20058;-58
2021/05/31 04:43:50;;;;;;;6.88;3.33;;;;;;;9.42;53.24;96971.72;4975063;28;20127;-61
2021/05/31 04:46:17;;;;;;;6.55;3.20;;;;;;;9.49;52.98;96966.41;4975345;28;20503;-59
2021/05/31 04:48:43;;;;;;;4.35;2.78;;;;;;;9.59;51.96;96967.03;4983209;28;20104;-60
2021/05/31 04:51:08;;;;;;;7.32;3.10;;;;;;;9.98;51.80;96961.69;4975725;28;20050;-60
2021/05/31 04:53:34;;;;;;;5.07;3.10;;;;;;;10.49;49.92;96967.13;4970143;28;20049;-59
2021/05/31 04:56:03;;;;;;;6.30;3.00;;;;;;;10.71;49.61;96968.34;4963184;28;20105;-61
2021/05/31 04:58:28;;;;;;;6.85;2.90;;;;;;;10.79;49.27;96966.56;4973932;28;20049;-60
2021/05/31 05:00:54;;;;;;;5.28;2.92;;;;;;;10.73;49.88;96973.47;4980602;28;20054;-60
2021/05/31 05:03:20;;;;;;;6.15;2.90;;;;;;;11.24;48.62;96981.50;4966415;28;20046;-61
2021/05/31 05:05:46;;;;;;;5.38;3.05;;;;;;;11.21;49.29;96974.78;4964284;28;20039;-60
2021/05/31 05:08:12;;;;;;;5.13;2.50;;;;;;;11.43;48.50;96978.72;4969348;28;20121;-61
2021/05/31 05:10:37;;;;;;;3.70;2.30;;;;;;;11.26;49.15;96985.47;4980561;28;20066;-61
2021/05/31 05:13:03;;;;;;;5.53;2.80;;;;;;;11.55;48.67;96985.19;4978190;28;20508;-62
2021/05/31 05:15:29;;;;;;;6.13;2.90;;;;;;;11.71;48.28;96991.34;4971298;28;20057;-61
2021/05/31 05:17:56;;;;;;;5.55;2.50;;;;;;;12.01;47.67;96982.41;4981309;28;20042;-61
2021/05/31 05:20:25;;;;;;;5.05;2.60;;;;;;;11.44;48.49;96985.78;4978087;28;21234;-59
2021/05/31 05:22:52;;;;;;;5.20;2.50;;;;;;;12.00;47.82;96986.31;4975940;28;20503;-61
2021/05/31 05:25:17;;;;;;;4.95;2.58;;;;;;;11.89;47.34;96975.16;4977010;28;20077;-61
2021/05/31 05:27:44;;;;;;;6.45;2.58;;;;;;;12.34;47.58;96984.47;4978134;28;20069;-61
2021/05/31 05:30:13;;;;;;;6.05;2.55;;;;;;;11.89;48.32;96988.09;4987956;28;20530;-61
2021/05/31 05:32:38;;;;;;;4.10;2.50;;;;;;;12.32;47.40;96978.56;4985465;28;20732;-61
2021/05/31 05:35:14;;;;;;;7.85;2.63;;;;;;;12.63;46.54;96976.63;4978843;28;20136;-62
2021/05/31 05:37:54;;;;;;;5.68;2.72;;;;;;;12.10;47.61;96979.41;4975296;28;20042;-61
2021/05/31 05:48:09;;;;;;;9.90;2.47;;;;;;;13.57;44.97;96984.72;4976482;28;20112;-61
2021/05/31 05:50:35;;;;;;;10.93;2.60;;;;;;;13.20;45.07;96987.50;4979820;28;20436;-61
2021/05/31 05:53:00;;;;;;;5.43;2.47;;;;;;;12.64;47.22;96997.44;4971356;28;20504;-63
2021/05/31 05:55:26;;;;;;;6.43;2.53;;;;;;;12.81;45.39;96998.81;4970494;28;20050;-63
2021/05/31 05:57:51;;;;;;;4.38;2.38;;;;;;;13.26;45.49;96993.44;4984494;28;20088;-61
2021/05/31 06:00:21;;;;;;;5.70;2.50;;;;;;;12.80;46.29;96994.47;4975720;28;20081;-59
2021/05/31 06:02:46;;;;;;;6.25;2.67;;;;;;;13.06;44.69;96985.38;4979288;28;20062;-60
2021/05/31 06:05:13;;;;;;;6.60;2.55;;;;;;;12.93;46.46;96986.81;4975671;28;20077;-58
2021/05/31 06:07:38;;;;;;;4.57;2.22;;;;;;;13.49;43.95;96988.59;4975861;28;20082;-59
2021/05/31 06:10:05;;;;;;;7.95;2.70;;;;;;;12.81;44.89;96985.88;4974097;28;20031;-61
2021/05/31 06:12:30;;;;;;;3.50;2.05;;;;;;;13.58;44.40;96988.28;4973272;28;20057;-60
2021/05/31 06:14:56;;;;;;;6.38;2.92;;;;;;;13.70;44.01;96996.25;4974109;28;20046;-60
2021/05/31 06:17:21;;;;;;;4.97;2.63;;;;;;;14.21;43.12;96991.16;4976407;28;20972;-61
2021/05/31 06:19:46;;;;;;;4.45;2.33;;;;;;;14.00;43.57;96991.78;4980709;28;20125;-57
2021/05/31 06:22:12;;;;;;;6.63;2.00;;;;;;;15.17;40.49;96984.53;4976343;28;20045;-60
2021/05/31 06:24:37;;;;;;;6.22;2.25;;;;;;;14.48;41.51;96986.97;4978512;28;20038;-59
2021/05/31 06:27:04;;;;;;;4.07;2.15;;;;;;;14.26;42.70;96994.31;4982648;28;20050;-62
2021/05/31 06:29:29;;;;;;;6.55;2.25;;;;;;;15.95;39.55;96986.59;4982186;28;20034;-61
2021/05/31 06:31:55;;;;;;;4.57;2.10;;;;;;;14.28;42.78;96986.47;4986686;28;20073;-60
2021/05/31 06:34:21;;;;;;;3.45;2.28;;;;;;;14.39;43.94;96985.75;4970952;28;20049;-57
2021/05/31 06:36:48;;;;;;;5.57;2.10;;;;;;;14.34;41.34;96992.41;4985247;28;20080;-61
2021/05/31 06:39:14;;;;;;;8.13;3.78;;;;;;;14.88;42.24;96984.44;4979595;28;20042;-60
2021/05/31 06:41:40;;;;;;;6.20;2.40;;;;;;;15.07;41.59;96983.28;4983030;28;20562;-61
2021/05/31 06:44:06;;;;;;;10.25;2.47;;;;;;;15.34;40.70;96988.50;4979386;28;20065;-58
2021/05/31 06:46:31;;;;;;;5.03;2.15;;;;;;;15.24;42.38;96982.56;4964549;28;20520;-60
2021/05/31 06:48:57;;;;;;;5.47;2.35;;;;;;;14.39;42.13;96978.25;4973306;28;20855;-61
2021/05/31 06:51:22;;;;;;;4.68;1.98;;;;;;;14.47;43.35;96984.59;4979892;28;20074;-60
2021/05/31 06:53:48;;;;;;;5.68;2.28;;;;;;;15.00;41.66;96981.31;4984411;28;20550;-61
2021/05/31 06:56:16;;;;;;;5.65;2.20;;;;;;;14.27;41.88;96984.09;4980083;28;20125;-60
2021/05/31 06:58:41;;;;;;;6.07;1.88;;;;;;;14.94;42.88;96993.13;4984292;28;20042;-59
2021/05/31 07:01:09;;;;;;;4.15;2.58;;;;;;;14.99;40.63;96984.47;4976774;28;20048;-60
2021/05/31 07:03:35;;;;;;;5.05;2.22;;;;;;;15.16;41.22;96992.03;4976158;28;20117;-61
2021/05/31 07:06:00;;;;;;;6.63;3.88;;;;;;;15.77;40.19;96983.06;4976771;28;20146;-61
2021/05/31 07:08:26;;;;;;;9.55;3.05;;;;;;;16.76;38.36;96986.06;4980150;28;20038;-57
2021/05/31 07:10:54;;;;;;;4.00;1.88;;;;;;;15.97;39.21;96986.22;4985169;28;20045;-58
2021/05/31 07:13:20;;;;;;;4.43;2.40;;;;;;;15.53;38.92;96979.09;4977792;28;20107;-61
2021/05/31 07:15:52;;;;;;;3.85;1.90;;;;;;;16.56;37.78;96988.50;4983214;28;20065;-61
2021/05/31 07:18:19;;;;;;;3.13;2.15;;;;;;;15.24;39.17;96990.06;4976879;28;20046;-59
2021/05/31 07:20:46;;;;;;;8.70;2.97;;;;;;;15.10;39.95;96982.53;4978119;28;20039;-60
2021/05/31 07:23:12;;;;;;;5.85;2.55;;;;;;;15.65;39.37;96976.72;4969088;28;20073;-60
2021/05/31 07:25:37;;;;;;;6.70;2.10;;;;;;;15.90;40.14;96987.03;4981221;28;20096;-58
2021/05/31 07:28:03;;;;;;;5.18;1.98;;;;;;;17.65;36.91;96979.31;4965231;28;20145;-64
2021/05/31 07:30:29;;;;;;;3.45;2.10;;;;;;;17.83;37.91;96978.41;4968049;28;20046;-61
2021/05/31 07:32:54;;;;;;;5.63;2.13;;;;;;;16.25;37.80;96975.13;4977061;28;20039;-57
2021/05/31 07:35:20;;;;;;;5.20;2.25;;;;;;;16.18;38.98;96968.84;4957313;28;20047;-61
2021/05/31 07:37:45;;;;;;;4.60;2.25;;;;;;;16.28;38.05;96973.56;4964096;28;20047;-60
2021/05/31 07:40:13;;;;;;;5.88;2.00;;;;;;;16.35;37.29;96972.75;4964148;28;20046;-60
2021/05/31 07:42:39;;;;;;;6.20;2.20;;;;;;;17.00;36.83;96976.13;4974361;28;20034;-60
2021/05/31 07:45:06;;;;;;;8.68;2.30;;;;;;;16.64;38.52;96981.78;4977338;28;20170;-61
2021/05/31 07:47:31;;;;;;;7.53;2.20;;;;;;;16.87;37.75;96978.56;4994557;28;20046;-60
2021/05/31 07:49:57;;;;;;;3.60;1.90;;;;;;;16.51;37.34;96969.56;4986747;28;20034;-59
2021/05/31 07:52:27;;;;;;;5.63;2.03;;;;;;;17.44;38.21;96971.16;4969246;28;20078;-61
2021/05/31 07:54:52;;;;;;;4.80;2.17;;;;;;;16.58;37.26;96978.63;4982074;28;20119;-59
2021/05/31 07:57:19;;;;;;;3.80;1.80;;;;;;;17.91;35.95;96975.16;4976038;28;20050;-61
2021/05/31 07:59:48;;;;;;;2.95;1.55;;;;;;;18.47;33.66;96975.03;4968917;28;20443;-61
2021/05/31 08:02:14;;;;;;;5.50;2.70;;;;;;;17.22;35.64;96976.03;4970807;28;20073;-61
2021/05/31 08:04:39;;;;;;;4.28;1.83;;;;;;;17.41;35.64;96971.94;4981002;28;20492;-61
2021/05/31 08:07:05;;;;;;;8.85;2.05;;;;;;;18.12;34.82;96967.88;4977323;28;20065;-62
2021/05/31 08:09:31;;;;;;;9.55;4.60;;;;;;;17.33;34.90;96960.94;4979902;28;20128;-61
2021/05/31 08:11:56;;;;;;;6.07;2.25;;;;;;;16.89;36.26;96964.31;4979587;28;20451;-61
2021/05/31 08:14:23;;;;;;;4.60;2.13;;;;;;;16.74;36.46;96956.03;4964412;28;20065;-62
2021/05/31 08:16:49;;;;;;;3.90;1.92;;;;;;;17.08;37.96;96963.84;4963266;28;20629;-60
2021/05/31 08:19:15;;;;;;;5.72;2.28;;;;;;;16.96;35.32;96959.56;4975981;28;20046;-59
2021/05/31 08:21:41;;;;;;;3.40;1.95;;;;;;;17.53;33.64;96954.88;4985497;28;20042;-60
2021/05/31 08:24:07;;;;;;;2.67;1.50;;;;;;;17.68;34.16;96948.03;4978682;28;20042;-60
2021/05/31 08:26:32;;;;;;;3.42;1.80;;;;;;;17.32;36.20;96953.03;4981904;28;20046;-59
2021/05/31 08:28:58;;;;;;;2.75;1.73;;;;;;;17.45;34.17;96947.78;4983017;28;20042;-61
2021/05/31 08:31:23;;;;;;;6.60;2.00;;;;;;;17.81;35.54;96944.75;4976363;28;20057;-61
2021/05/31 08:33:49;;;;;;;3.35;2.13;;;;;;;18.63;32.69;96952.28;4982148;28;20044;-62
2021/05/31 08:36:15;;;;;;;3.35;1.65;;;;;;;18.90;30.84;96932.97;4977866;28;20053;-62
2021/05/31 08:38:40;;;;;;;6.50;1.60;;;;;;;19.08;29.04;96938.28;4982384;28;20404;-61
2021/05/31 08:41:06;;;;;;;3.33;1.20;;;;;;;18.41;31.38;96937.88;4977467;28;20677;-61
2021/05/31 08:43:31;;;;;;;6.43;1.40;;;;;;;17.91;29.56;96939.16;4981745;28;20096;-60
2021/05/31 08:45:57;;;;;;;2.33;1.23;;;;;;;17.68;30.56;96947.22;4982440;28;20074;-61
2021/05/31 08:48:23;;;;;;;2.88;1.30;;;;;;;17.95;29.76;96937.16;4977317;28;20068;-59
2021/05/31 08:50:49;;;;;;;2.40;1.25;;;;;;;18.43;30.56;96952.13;4982816;28;20129;-60
2021/05/31 08:53:14;;;;;;;8.80;1.40;;;;;;;17.46;29.71;96961.22;4975250;28;20057;-61
2021/05/31 08:55:40;;;;;;;3.05;1.38;;;;;;;17.82;31.27;96947.13;4982738;28;20518;-59
2021/05/31 08:58:06;;;;;;;5.00;1.50;;;;;;;17.55;31.31;96955.25;4977553;28;20093;-60
2021/05/31 09:00:34;;;;;;;8.65;1.60;;;;;;;17.45;32.70;96945.84;4980040;28;20051;-56
2021/05/31 09:03:03;;;;;;;4.88;1.85;;;;;;;17.94;31.52;96949.41;4968880;28;20051;-59
2021/05/31 09:05:42;;;;;;;5.40;1.40;;;;;;;18.21;31.68;96939.69;4976579;28;20080;-59
2021/05/31 09:08:10;;;;;;;5.68;1.67;;;;;;;18.54;29.68;96946.44;4971644;28;20045;-60
2021/05/31 09:10:37;;;;;;;3.65;1.38;;;;;;;18.33;31.47;96944.72;4981571;28;20046;-60
2021/05/31 09:13:04;;;;;;;4.57;1.40;;;;;;;18.84;30.16;96934.63;4974406;28;20570;-62
2021/05/31 09:15:29;;;;;;;5.72;1.58;;;;;;;18.70;31.39;96951.44;4981908;28;20081;-61
2021/05/31 09:17:55;;;;;;;3.88;1.70;;;;;;;18.64;30.87;96939.22;4981464;28;20042;-60
2021/05/31 09:20:21;;;;;;;5.40;2.03;;;;;;;18.31;30.95;96950.66;4975449;28;21580;-59
2021/05/31 09:22:48;;;;;;;2.83;1.50;;;;;;;18.18;29.91;96941.28;4980095;28;20050;-60
2021/05/31 09:25:26;;;;;;;5.32;1.48;;;;;;;18.57;31.18;96947.63;4976000;28;20470;-61
2021/05/31 09:27:53;;;;;;;2.80;1.35;;;;;;;19.01;27.57;96946.69;4974465;28;20047;-59
2021/05/31 09:30:19;;;;;;;3.30;1.40;;;;;;;18.79;30.13;96942.59;4972725;28;20043;-61
2021/05/31 09:32:53;;;;;;;5.88;2.08;;;;;;;19.12;29.33;96932.69;4981182;28;20044;-61
2021/05/31 09:35:23;;;;;;;4.90;1.90;;;;;;;19.06;30.12;96945.47;4974192;28;20180;-61
2021/05/31 09:37:51;;;;;;;2.67;1.42;;;;;;;19.19;30.39;96940.13;4980820;28;20141;-61
2021/05/31 09:40:22;;;;;;;2.90;1.55;;;;;;;19.29;30.21;96933.66;4975978;28;20424;-60
2021/05/31 09:42:53;;;;;;;4.25;1.83;;;;;;;18.91;32.55;96939.31;4976196;28;20407;-63
2021/05/31 09:45:18;;;;;;;4.40;1.65;;;;;;;18.98;27.73;96930.91;4975712;28;20038;-61
2021/05/31 09:47:44;;;;;;;5.10;1.65;;;;;;;19.19;30.74;96929.03;4979987;28;20040;-61
2021/05/31 09:50:11;;;;;;;3.20;1.77;;;;;;;18.99;30.60;96926.91;4968830;28;20057;-60
2021/05/31 09:52:37;;;;;;;6.38;1.75;;;;;;;18.36;30.16;96932.78;4979103;28;20085;-60
2021/05/31 09:55:06;;;;;;;3.42;1.27;;;;;;;19.88;31.81;96937.94;4977362;28;20038;-62
2021/05/31 09:57:35;;;;;;;2.60;1.47;;;;;;;21.15;29.64;96929.53;4981042;28;20464;-61
2021/05/31 10:00:17;;;;;;;6.38;3.00;;;;;;;20.62;29.13;96911.97;4978871;28;20117;-60
2021/05/31 10:02:51;;;;;;;4.32;1.40;;;;;;;20.77;29.76;96935.50;4982113;28;20050;-60
2021/05/31 10:10:38;;;;;;;9.23;2.13;;;;;;;20.69;28.85;96924.94;4985903;28;20112;-62
2021/05/31 10:13:04;;;;;;;6.55;1.52;;;;;;;21.16;28.55;96921.97;4984624;28;20050;-63
2021/05/31 10:15:32;;;;;;;2.83;1.40;;;;;;;19.24;30.13;96911.91;4985314;28;20133;-59
2021/05/31 10:17:59;;;;;;;4.57;1.60;;;;;;;19.08;32.89;96924.41;4987078;28;20061;-61
2021/05/31 10:20:27;;;;;;;6.07;1.52;;;;;;;19.35;30.36;96928.41;4975072;28;20411;-61
2021/05/31 10:22:53;;;;;;;6.57;2.08;;;;;;;19.49;29.64;96922.63;4986055;28;20065;-61
2021/05/31 10:25:22;;;;;;;4.25;1.65;;;;;;;19.09;30.05;96925.97;4973759;28;20047;-60
2021/05/31 10:27:51;;;;;;;4.13;1.65;;;;;;;19.19;30.29;96924.25;4989991;28;20127;-61
2021/05/31 10:30:19;;;;;;;3.05;1.23;;;;;;;19.38;31.74;96922.03;4985356;28;20034;-62
2021/05/31 10:32:44;;;;;;;5.38;1.73;;;;;;;19.32;30.34;96923.69;4993844;28;20030;-61
2021/05/31 10:35:30;;;;;;;4.20;1.60;;;;;;;20.52;28.91;96916.50;4990096;28;20069;-62
2021/05/31 10:37:57;;;;;;;4.93;2.55;;;;;;;19.31;30.79;96922.91;4994385;28;20054;-56
2021/05/31 10:40:44;;;;;;;3.90;1.50;;;;;;;19.33;30.15;96916.94;4971489;28;20430;-59
2021/05/31 10:43:12;;;;;;;3.30;1.25;;;;;;;19.60;29.96;96914.91;4962805;28;20133;-58
2021/05/31 10:45:39;;;;;;;2.92;1.38;;;;;;;20.22;28.87;96912.69;4985945;28;20528;-60
2021/05/31 10:48:10;;;;;;;8.07;1.38;;;;;;;19.77;28.78;96923.41;4983268;28;20423;-61
2021/05/31 10:50:45;;;;;;;3.20;1.65;;;;;;;20.10;29.68;96923.66;4987687;28;20551;-58
2021/05/31 10:53:19;;;;;;;3.65;1.23;;;;;;;20.11;30.27;96916.88;4981693;28;20062;-60
2021/05/31 10:55:49;;;;;;;8.18;3.08;;;;;;;20.06;28.02;96929.28;4987891;28;20089;-61
2021/05/31 10:58:16;;;;;;;7.88;1.70;;;;;;;19.85;29.63;96920.09;4981008;28;20137;-59
2021/05/31 11:00:52;;;;;;;3.08;1.33;;;;;;;20.04;30.87;96917.78;4981360;28;20047;-61
2021/05/31 11:03:18;;;;;;;4.65;1.42;;;;;;;19.11;29.12;96931.13;4977974;28;20034;-60
2021/05/31 11:05:43;;;;;;;4.13;1.40;;;;;;;19.54;31.46;96922.16;4987455;28;20125;-59
2021/05/31 11:08:09;;;;;;;4.43;1.40;;;;;;;19.35;30.31;96922.84;4980743;28;20063;-60
2021/05/31 11:10:36;;;;;;;8.75;1.38;;;;;;;19.76;29.42;96925.41;4979711;28;20104;-62
2021/05/31 11:13:14;;;;;;;3.67;1.50;;;;;;;19.78;29.38;96933.31;4987026;28;20042;-62
2021/05/31 11:15:40;;;;;;;4.45;1.23;;;;;;;19.79;30.14;96923.75;4987336;28;20041;-62
2021/05/31 11:18:05;;;;;;;5.13;1.45;;;;;;;19.89;29.59;96927.59;4976851;28;20136;-61
2021/05/31 11:20:32;;;;;;;4.55;1.52;;;;;;;20.34;28.42;96918.84;4981213;28;20105;-60
2021/05/31 11:23:05;;;;;;;3.30;1.50;;;;;;;20.65;29.23;96921.44;4979316;28;20038;-59
2021/05/31 11:25:31;;;;;;;6.18;1.48;;;;;;;19.76;30.04;96919.06;4987416;28;20081;-59
2021/05/31 11:28:03;;;;;;;4.75;3.42;;;;;;;20.62;31.46;96918.31;4978850;28;20297;-57
2021/05/31 11:30:33;;;;;;;6.18;1.30;;;;;;;20.65;28.93;96918.66;4972054;28;20034;-60
2021/05/31 11:33:03;;;;;;;4.60;1.50;;;;;;;21.14;28.20;96916.03;4976219;28;20053;-61
2021/05/31 11:35:29;;;;;;;;;;;;;;;19.93;28.70;96911.63;4979647;28;20038;-60
2021/05/31 11:37:56;;;;;;;2.83;1.30;;;;;;;19.53;31.68;96911.47;4977282;28;19922;-59
2021/05/31 11:40:37;;;;;;;3.65;1.45;;;;;;;19.56;29.51;96913.41;4958458;28;20495;-60
2021/05/31 11:43:04;;;;;;;4.05;1.55;;;;;;;19.45;27.82;96911.56;4963053;28;20098;-61
2021/05/31 11:45:36;;;;;;;3.88;1.63;;;;;;;20.08;28.29;96907.41;4972022;28;20066;-61
2021/05/31 11:48:12;;;;;;;2.63;1.60;;;;;;;20.34;28.13;96904.94;4982631;28;20042;-61
2021/05/31 11:50:40;;;;;;;10.32;1.30;;;;;;;20.37;30.13;96896.53;4982878;28;20057;-60
2021/05/31 11:53:08;;;;;;;5.18;1.65;;;;;;;20.67;30.62;96908.69;4977779;28;20129;-59
2021/05/31 11:55:34;;;;;;;6.22;1.75;;;;;;;19.84;29.44;96907.41;4978498;28;20066;-60